SHT8V EGLL-EGPH
Flight info
| Callsign | SHT8V |
|---|---|
| Flight time | 0h 54m |
| Altitude | 32000 |
| Route | ULTIB1J ULTIB T420 TNT UN57 POL UN601 RIBEL DCT INPIP INPIP1E |
| Aircraft | A320/M-SDE3FGIJ1KRWXY/SB1 |
Departure
| Time | 2026-05-06 19:08 |
|---|---|
| Airport | London Heathrow Airport (EGLL) |
Arrival
| Time | 2026-05-06 20:02 |
|---|---|
| Airport | Edinburgh Airport (EGPH) |
| Time | Latitude | Longitude | Altitude | Speed | Heading |
|---|---|---|---|---|---|
| 2026-05-06 18:49 | 51.47400 | -0.48757 | 86 ft | 0 kts | 180° |
| 2026-05-06 18:54 | 51.47419 | -0.48757 | 88 ft | 4 kts | 180° |
| 2026-05-06 18:54 | 51.47445 | -0.48758 | 86 ft | 3 kts | 180° |
| 2026-05-06 18:55 | 51.47465 | -0.48757 | 86 ft | 0 kts | 194° |
| 2026-05-06 18:55 | 51.47462 | -0.48758 | 86 ft | 1 kts | 194° |
| 2026-05-06 18:56 | 51.47400 | -0.48757 | 87 ft | 0 kts | 180° |
| 2026-05-06 18:56 | 51.47399 | -0.48757 | 86 ft | 0 kts | 179° |
| 2026-05-06 18:58 | 51.47416 | -0.48757 | 89 ft | 4 kts | 179° |
| 2026-05-06 18:58 | 51.47443 | -0.48758 | 86 ft | 4 kts | 180° |
| 2026-05-06 18:58 | 51.47464 | -0.48758 | 86 ft | 4 kts | 169° |
| 2026-05-06 18:58 | 51.47484 | -0.48775 | 69 ft | 4 kts | 109° |
| 2026-05-06 18:59 | 51.47486 | -0.48813 | 93 ft | 4 kts | 90° |
| 2026-05-06 18:59 | 51.47486 | -0.48821 | 87 ft | 0 kts | 90° |
| 2026-05-06 19:01 | 51.47486 | -0.48815 | 90 ft | 1 kts | 90° |
| 2026-05-06 19:01 | 51.47486 | -0.48795 | 87 ft | 3 kts | 89° |
| 2026-05-06 19:01 | 51.47487 | -0.48752 | 88 ft | 5 kts | 89° |
| 2026-05-06 19:01 | 51.47487 | -0.48676 | 87 ft | 8 kts | 89° |
| 2026-05-06 19:02 | 51.47487 | -0.48565 | 87 ft | 11 kts | 90° |
| 2026-05-06 19:02 | 51.47487 | -0.48546 | 88 ft | 0 kts | 90° |
| 2026-05-06 19:02 | 51.47487 | -0.48540 | 87 ft | 2 kts | 89° |
| 2026-05-06 19:02 | 51.47488 | -0.48508 | 89 ft | 4 kts | 89° |
| 2026-05-06 19:03 | 51.47488 | -0.48448 | 87 ft | 7 kts | 90° |
| 2026-05-06 19:03 | 51.47472 | -0.48373 | 89 ft | 8 kts | 142° |
| 2026-05-06 19:03 | 51.47416 | -0.48360 | 86 ft | 9 kts | 179° |
| 2026-05-06 19:03 | 51.47353 | -0.48358 | 86 ft | 10 kts | 180° |
| 2026-05-06 19:04 | 51.47283 | -0.48358 | 86 ft | 11 kts | 179° |
| 2026-05-06 19:04 | 51.47202 | -0.48357 | 89 ft | 12 kts | 180° |
| 2026-05-06 19:04 | 51.47108 | -0.48357 | 88 ft | 15 kts | 179° |
| 2026-05-06 19:04 | 51.46996 | -0.48356 | 88 ft | 17 kts | 180° |
| 2026-05-06 19:05 | 51.46892 | -0.48355 | 86 ft | 11 kts | 180° |
| 2026-05-06 19:05 | 51.46839 | -0.48354 | 86 ft | 3 kts | 180° |
| 2026-05-06 19:05 | 51.46825 | -0.48354 | 86 ft | 0 kts | 180° |
| 2026-05-06 19:05 | 51.46805 | -0.48354 | 86 ft | 6 kts | 180° |
| 2026-05-06 19:06 | 51.46756 | -0.48343 | 88 ft | 9 kts | 151° |
| 2026-05-06 19:06 | 51.46737 | -0.48241 | 86 ft | 11 kts | 117° |
| 2026-05-06 19:06 | 51.46658 | -0.48213 | 86 ft | 8 kts | 179° |
| 2026-05-06 19:06 | 51.46594 | -0.48212 | 87 ft | 11 kts | 179° |
| 2026-05-06 19:07 | 51.46517 | -0.48211 | 88 ft | 7 kts | 180° |
| 2026-05-06 19:07 | 51.46481 | -0.48180 | 90 ft | 8 kts | 112° |
| 2026-05-06 19:07 | 51.46484 | -0.48072 | 90 ft | 12 kts | 94° |
| 2026-05-06 19:07 | 51.46481 | -0.47710 | 86 ft | 69 kts | 89° |
| 2026-05-06 19:08 | 51.46487 | -0.46468 | 90 ft | 149 kts | 89° |
| 2026-05-06 19:08 | 51.46498 | -0.45833 | 86 ft | 172 kts | 87° |
| 2026-05-06 19:08 | 51.46538 | -0.44548 | 508 ft | 176 kts | 87° |
| 2026-05-06 19:08 | 51.46571 | -0.42590 | 1612 ft | 175 kts | 85° |
| 2026-05-06 19:09 | 51.46859 | -0.40628 | 2011 ft | 192 kts | 55° |
| 2026-05-06 19:09 | 51.47755 | -0.38900 | 2404 ft | 214 kts | 47° |
| 2026-05-06 19:09 | 51.48787 | -0.36997 | 2906 ft | 237 kts | 48° |
| 2026-05-06 19:09 | 51.49890 | -0.34900 | 3609 ft | 251 kts | 49° |
| 2026-05-06 19:10 | 51.51016 | -0.32718 | 4567 ft | 256 kts | 49° |
| 2026-05-06 19:10 | 51.52131 | -0.30441 | 5488 ft | 264 kts | 57° |
| 2026-05-06 19:10 | 51.52865 | -0.27676 | 5866 ft | 270 kts | 69° |
| 2026-05-06 19:10 | 51.53703 | -0.25005 | 5993 ft | 268 kts | 49° |
| 2026-05-06 19:11 | 51.55121 | -0.23144 | 6004 ft | 264 kts | 24° |
| 2026-05-06 19:11 | 51.56883 | -0.22431 | 6006 ft | 261 kts | 359° |
| 2026-05-06 19:11 | 51.58655 | -0.22943 | 6065 ft | 261 kts | 343° |
| 2026-05-06 19:11 | 51.60421 | -0.23660 | 6061 ft | 262 kts | 348° |
| 2026-05-06 19:12 | 51.62175 | -0.24483 | 6067 ft | 263 kts | 336° |
| 2026-05-06 19:12 | 51.63801 | -0.25841 | 6065 ft | 263 kts | 331° |
| 2026-05-06 19:12 | 51.65392 | -0.27299 | 6064 ft | 263 kts | 330° |
| 2026-05-06 19:12 | 51.66979 | -0.28803 | 6422 ft | 266 kts | 329° |
| 2026-05-06 19:13 | 51.68567 | -0.30331 | 7404 ft | 267 kts | 329° |
| 2026-05-06 19:13 | 51.70167 | -0.31876 | 8362 ft | 269 kts | 329° |
| 2026-05-06 19:13 | 51.71789 | -0.33445 | 9239 ft | 274 kts | 329° |
| 2026-05-06 19:13 | 51.73437 | -0.35042 | 10102 ft | 278 kts | 329° |
| 2026-05-06 19:14 | 51.75155 | -0.36707 | 10493 ft | 300 kts | 329° |
| 2026-05-06 19:14 | 51.77010 | -0.38501 | 10809 ft | 320 kts | 329° |
| 2026-05-06 19:14 | 51.78946 | -0.40372 | 11405 ft | 327 kts | 328° |
| 2026-05-06 19:14 | 51.80914 | -0.42277 | 12130 ft | 332 kts | 328° |
| 2026-05-06 19:15 | 51.82902 | -0.44206 | 12895 ft | 335 kts | 328° |
| 2026-05-06 19:15 | 51.84915 | -0.46160 | 13654 ft | 339 kts | 328° |
| 2026-05-06 19:15 | 51.86942 | -0.48133 | 13944 ft | 341 kts | 328° |
| 2026-05-06 19:15 | 51.88977 | -0.50112 | 14020 ft | 341 kts | 328° |
| 2026-05-06 19:16 | 51.91006 | -0.52089 | 14030 ft | 340 kts | 328° |
| 2026-05-06 19:16 | 51.93040 | -0.54072 | 14104 ft | 344 kts | 328° |
| 2026-05-06 19:16 | 51.95097 | -0.56081 | 14813 ft | 346 kts | 328° |
| 2026-05-06 19:16 | 51.97163 | -0.58098 | 15502 ft | 349 kts | 328° |
| 2026-05-06 19:17 | 51.99251 | -0.60136 | 16161 ft | 352 kts | 328° |
| 2026-05-06 19:17 | 52.01359 | -0.62193 | 16823 ft | 355 kts | 328° |
| 2026-05-06 19:17 | 52.03486 | -0.64270 | 17449 ft | 358 kts | 328° |
| 2026-05-06 19:17 | 52.05636 | -0.66380 | 18077 ft | 363 kts | 328° |
| 2026-05-06 19:18 | 52.07801 | -0.68515 | 18689 ft | 367 kts | 328° |
| 2026-05-06 19:18 | 52.09997 | -0.70681 | 19275 ft | 370 kts | 328° |
| 2026-05-06 19:18 | 52.12206 | -0.72857 | 19909 ft | 373 kts | 328° |
| 2026-05-06 19:18 | 52.14407 | -0.75025 | 20528 ft | 376 kts | 327° |
| 2026-05-06 19:19 | 52.16685 | -0.77269 | 21130 ft | 380 kts | 327° |
| 2026-05-06 19:19 | 52.18927 | -0.79478 | 21685 ft | 383 kts | 327° |
| 2026-05-06 19:19 | 52.21218 | -0.81745 | 22239 ft | 387 kts | 327° |
| 2026-05-06 19:19 | 52.23531 | -0.84037 | 22794 ft | 391 kts | 327° |
| 2026-05-06 19:20 | 52.25863 | -0.86352 | 23371 ft | 394 kts | 327° |
| 2026-05-06 19:20 | 52.28216 | -0.88689 | 23876 ft | 397 kts | 327° |
| 2026-05-06 19:20 | 52.30584 | -0.91039 | 24336 ft | 400 kts | 327° |
| 2026-05-06 19:20 | 52.32965 | -0.93402 | 24791 ft | 402 kts | 327° |
| 2026-05-06 19:21 | 52.35363 | -0.95787 | 25234 ft | 405 kts | 327° |
| 2026-05-06 19:21 | 52.37771 | -0.98191 | 25664 ft | 407 kts | 327° |
| 2026-05-06 19:21 | 52.40192 | -1.00617 | 26097 ft | 409 kts | 327° |
| 2026-05-06 19:21 | 52.42630 | -1.03065 | 26529 ft | 411 kts | 327° |
| 2026-05-06 19:22 | 52.45075 | -1.05524 | 26925 ft | 414 kts | 327° |
| 2026-05-06 19:22 | 52.47535 | -1.07998 | 27338 ft | 416 kts | 326° |
| 2026-05-06 19:22 | 52.50012 | -1.10484 | 27737 ft | 419 kts | 326° |
| 2026-05-06 19:22 | 52.52503 | -1.12987 | 28140 ft | 421 kts | 327° |
| 2026-05-06 19:23 | 52.55006 | -1.15501 | 28545 ft | 423 kts | 327° |
| 2026-05-06 19:23 | 52.57526 | -1.18037 | 28943 ft | 425 kts | 327° |
| 2026-05-06 19:23 | 52.60026 | -1.20557 | 29323 ft | 428 kts | 327° |
| 2026-05-06 19:23 | 52.62567 | -1.23122 | 29699 ft | 430 kts | 327° |
| 2026-05-06 19:24 | 52.65123 | -1.25709 | 30065 ft | 432 kts | 327° |
| 2026-05-06 19:24 | 52.67691 | -1.28312 | 30378 ft | 435 kts | 327° |
| 2026-05-06 19:24 | 52.69397 | -1.30046 | 30583 ft | 436 kts | 327° |
| 2026-05-06 19:24 | 52.72840 | -1.33553 | 31024 ft | 438 kts | 327° |
| 2026-05-06 19:25 | 52.75431 | -1.36192 | 31522 ft | 437 kts | 327° |
| 2026-05-06 19:25 | 52.78018 | -1.38823 | 31928 ft | 437 kts | 327° |
| 2026-05-06 19:25 | 52.80600 | -1.41455 | 32043 ft | 436 kts | 327° |
| 2026-05-06 19:26 | 52.85753 | -1.46733 | 32057 ft | 435 kts | 327° |
| 2026-05-06 19:26 | 52.90899 | -1.52023 | 32049 ft | 435 kts | 327° |
| 2026-05-06 19:27 | 52.96042 | -1.57313 | 32055 ft | 435 kts | 328° |
| 2026-05-06 19:27 | 53.01137 | -1.62580 | 32054 ft | 434 kts | 328° |
| 2026-05-06 19:28 | 53.06356 | -1.67552 | 32053 ft | 433 kts | 336° |
| 2026-05-06 19:28 | 53.11995 | -1.71056 | 32051 ft | 433 kts | 339° |
| 2026-05-06 19:29 | 53.17636 | -1.74555 | 32052 ft | 433 kts | 339° |
| 2026-05-06 19:29 | 53.22321 | -1.77480 | 32051 ft | 432 kts | 339° |
| 2026-05-06 19:30 | 53.27950 | -1.80998 | 32050 ft | 431 kts | 339° |
| 2026-05-06 19:30 | 53.33556 | -1.84504 | 32054 ft | 430 kts | 339° |
| 2026-05-06 19:31 | 53.39159 | -1.88008 | 32051 ft | 430 kts | 339° |
| 2026-05-06 19:31 | 53.47562 | -1.93295 | 32043 ft | 430 kts | 339° |
| 2026-05-06 19:32 | 53.53161 | -1.96825 | 32043 ft | 430 kts | 339° |
| 2026-05-06 19:32 | 53.58760 | -2.00370 | 32046 ft | 430 kts | 339° |
| 2026-05-06 19:33 | 53.64354 | -2.03933 | 32046 ft | 430 kts | 339° |
| 2026-05-06 19:33 | 53.69949 | -2.07500 | 32046 ft | 430 kts | 339° |
| 2026-05-06 19:34 | 53.75530 | -2.11067 | 32040 ft | 426 kts | 339° |
| 2026-05-06 19:34 | 53.81031 | -2.14765 | 32041 ft | 425 kts | 338° |
| 2026-05-06 19:35 | 53.86460 | -2.18540 | 32043 ft | 425 kts | 338° |
| 2026-05-06 19:35 | 53.91932 | -2.22319 | 32044 ft | 425 kts | 338° |
| 2026-05-06 19:36 | 53.97408 | -2.26073 | 32042 ft | 425 kts | 338° |
| 2026-05-06 19:36 | 54.02875 | -2.29827 | 32046 ft | 423 kts | 338° |
| 2026-05-06 19:37 | 54.08323 | -2.33589 | 32038 ft | 423 kts | 338° |
| 2026-05-06 19:37 | 54.13776 | -2.37366 | 32038 ft | 423 kts | 338° |
| 2026-05-06 19:38 | 54.19220 | -2.41145 | 32038 ft | 423 kts | 338° |
| 2026-05-06 19:38 | 54.24662 | -2.44941 | 32040 ft | 421 kts | 338° |
| 2026-05-06 19:39 | 54.30079 | -2.48729 | 32040 ft | 420 kts | 338° |
| 2026-05-06 19:39 | 54.35488 | -2.52515 | 32040 ft | 420 kts | 338° |
| 2026-05-06 19:40 | 54.40900 | -2.56300 | 32034 ft | 420 kts | 338° |
| 2026-05-06 19:40 | 54.46309 | -2.60105 | 32034 ft | 420 kts | 338° |
| 2026-05-06 19:41 | 54.51658 | -2.63896 | 31998 ft | 413 kts | 337° |
| 2026-05-06 19:41 | 54.54291 | -2.65764 | 31708 ft | 408 kts | 337° |
| 2026-05-06 19:41 | 54.56920 | -2.67624 | 31450 ft | 409 kts | 337° |
| 2026-05-06 19:42 | 54.59550 | -2.69485 | 31178 ft | 408 kts | 338° |
| 2026-05-06 19:42 | 54.62169 | -2.71344 | 30926 ft | 406 kts | 337° |
| 2026-05-06 19:42 | 54.64777 | -2.73200 | 30670 ft | 405 kts | 337° |
| 2026-05-06 19:42 | 54.67365 | -2.75043 | 30207 ft | 399 kts | 337° |
| 2026-05-06 19:43 | 54.69919 | -2.76865 | 29633 ft | 396 kts | 337° |
| 2026-05-06 19:43 | 54.72446 | -2.78674 | 29131 ft | 391 kts | 336° |
| 2026-05-06 19:43 | 54.74944 | -2.80466 | 28601 ft | 386 kts | 336° |
| 2026-05-06 19:43 | 54.77408 | -2.82236 | 28103 ft | 382 kts | 336° |
| 2026-05-06 19:44 | 54.79848 | -2.83989 | 27603 ft | 378 kts | 336° |
| 2026-05-06 19:44 | 54.82267 | -2.85728 | 27111 ft | 375 kts | 336° |
| 2026-05-06 19:44 | 54.84672 | -2.87461 | 26620 ft | 373 kts | 336° |
| 2026-05-06 19:44 | 54.87062 | -2.89185 | 26137 ft | 371 kts | 335° |
| 2026-05-06 19:45 | 54.89445 | -2.90904 | 25628 ft | 372 kts | 335° |
| 2026-05-06 19:45 | 54.91857 | -2.92644 | 25104 ft | 377 kts | 335° |
| 2026-05-06 19:45 | 54.94277 | -2.94388 | 24582 ft | 376 kts | 335° |
| 2026-05-06 19:45 | 54.96695 | -2.96133 | 24055 ft | 377 kts | 335° |
| 2026-05-06 19:46 | 54.99116 | -2.97888 | 23520 ft | 377 kts | 334° |
| 2026-05-06 19:46 | 55.01533 | -2.99649 | 22936 ft | 376 kts | 334° |
| 2026-05-06 19:46 | 55.03939 | -3.01403 | 22414 ft | 374 kts | 334° |
| 2026-05-06 19:46 | 55.06335 | -3.03148 | 21895 ft | 372 kts | 334° |
| 2026-05-06 19:47 | 55.08717 | -3.04882 | 21377 ft | 370 kts | 334° |
| 2026-05-06 19:47 | 55.11089 | -3.06610 | 20862 ft | 368 kts | 334° |
| 2026-05-06 19:47 | 55.13445 | -3.08329 | 20341 ft | 366 kts | 334° |
| 2026-05-06 19:47 | 55.15789 | -3.10041 | 19794 ft | 365 kts | 334° |
| 2026-05-06 19:48 | 55.18157 | -3.11777 | 18914 ft | 373 kts | 334° |
| 2026-05-06 19:48 | 55.20569 | -3.13548 | 18171 ft | 378 kts | 334° |
| 2026-05-06 19:48 | 55.22975 | -3.15315 | 17702 ft | 372 kts | 334° |
| 2026-05-06 19:48 | 55.25325 | -3.17046 | 17477 ft | 359 kts | 334° |
| 2026-05-06 19:49 | 55.27586 | -3.18707 | 17343 ft | 345 kts | 334° |
| 2026-05-06 19:49 | 55.29760 | -3.20304 | 17205 ft | 332 kts | 334° |
| 2026-05-06 19:49 | 55.31854 | -3.21842 | 17040 ft | 321 kts | 334° |
| 2026-05-06 19:49 | 55.33888 | -3.23342 | 16489 ft | 314 kts | 333° |
| 2026-05-06 19:50 | 55.35861 | -3.24806 | 15764 ft | 311 kts | 334° |
| 2026-05-06 19:50 | 55.37843 | -3.26283 | 15056 ft | 308 kts | 334° |
| 2026-05-06 19:50 | 55.39805 | -3.27742 | 14479 ft | 303 kts | 334° |
| 2026-05-06 19:50 | 55.41753 | -3.29190 | 14007 ft | 306 kts | 334° |
| 2026-05-06 19:51 | 55.43716 | -3.30647 | 13594 ft | 305 kts | 334° |
| 2026-05-06 19:51 | 55.45673 | -3.32099 | 13114 ft | 306 kts | 334° |
| 2026-05-06 19:51 | 55.47616 | -3.33544 | 12814 ft | 301 kts | 334° |
| 2026-05-06 19:51 | 55.49527 | -3.35050 | 12409 ft | 299 kts | 328° |
| 2026-05-06 19:52 | 55.51215 | -3.37141 | 12028 ft | 295 kts | 317° |
| 2026-05-06 19:52 | 55.52794 | -3.39442 | 11627 ft | 292 kts | 318° |
| 2026-05-06 19:52 | 55.54361 | -3.41702 | 10957 ft | 290 kts | 318° |
| 2026-05-06 19:52 | 55.55922 | -3.43945 | 10294 ft | 288 kts | 318° |
| 2026-05-06 19:53 | 55.57458 | -3.46154 | 9811 ft | 283 kts | 318° |
| 2026-05-06 19:53 | 55.58977 | -3.48346 | 9485 ft | 279 kts | 318° |
| 2026-05-06 19:53 | 55.60448 | -3.50470 | 9429 ft | 267 kts | 318° |
| 2026-05-06 19:53 | 55.61864 | -3.52515 | 9322 ft | 257 kts | 318° |
| 2026-05-06 19:54 | 55.63225 | -3.54485 | 9213 ft | 248 kts | 318° |
| 2026-05-06 19:54 | 55.64527 | -3.56392 | 9076 ft | 240 kts | 317° |
| 2026-05-06 19:54 | 55.65781 | -3.58360 | 8703 ft | 241 kts | 315° |
| 2026-05-06 19:54 | 55.67022 | -3.60375 | 8373 ft | 242 kts | 315° |
| 2026-05-06 19:55 | 55.68258 | -3.62397 | 8048 ft | 242 kts | 315° |
| 2026-05-06 19:55 | 55.69501 | -3.64403 | 7726 ft | 242 kts | 317° |
| 2026-05-06 19:55 | 55.70785 | -3.66334 | 7398 ft | 242 kts | 318° |
| 2026-05-06 19:55 | 55.72089 | -3.68226 | 7081 ft | 242 kts | 319° |
| 2026-05-06 19:56 | 55.73402 | -3.70115 | 6758 ft | 243 kts | 319° |
| 2026-05-06 19:56 | 55.74717 | -3.72010 | 6417 ft | 244 kts | 319° |
| 2026-05-06 19:56 | 55.76012 | -3.73959 | 6072 ft | 244 kts | 315° |
| 2026-05-06 19:56 | 55.77236 | -3.76047 | 5746 ft | 243 kts | 313° |
| 2026-05-06 19:57 | 55.78617 | -3.77730 | 5462 ft | 244 kts | 341° |
| 2026-05-06 19:57 | 55.80278 | -3.77792 | 5249 ft | 240 kts | 17° |
| 2026-05-06 19:57 | 55.81639 | -3.76217 | 5035 ft | 233 kts | 53° |
| 2026-05-06 19:57 | 55.82518 | -3.73825 | 4761 ft | 230 kts | 60° |
| 2026-05-06 19:58 | 55.83341 | -3.71383 | 4441 ft | 230 kts | 60° |
| 2026-05-06 19:58 | 55.84170 | -3.68955 | 4127 ft | 230 kts | 60° |
| 2026-05-06 19:58 | 55.85002 | -3.66531 | 3811 ft | 230 kts | 60° |
| 2026-05-06 19:58 | 55.85835 | -3.64106 | 3501 ft | 229 kts | 60° |
| 2026-05-06 19:59 | 55.86668 | -3.61678 | 3183 ft | 230 kts | 60° |
| 2026-05-06 19:59 | 55.87494 | -3.59269 | 2864 ft | 225 kts | 60° |
| 2026-05-06 19:59 | 55.88292 | -3.56937 | 2568 ft | 217 kts | 61° |
| 2026-05-06 19:59 | 55.89063 | -3.54682 | 2290 ft | 211 kts | 61° |
| 2026-05-06 20:00 | 55.89819 | -3.52470 | 1995 ft | 207 kts | 62° |
| 2026-05-06 20:00 | 55.90560 | -3.50297 | 1701 ft | 203 kts | 62° |
| 2026-05-06 20:00 | 55.91277 | -3.48199 | 1413 ft | 191 kts | 62° |
| 2026-05-06 20:00 | 55.91932 | -3.46278 | 1161 ft | 168 kts | 62° |
| 2026-05-06 20:01 | 55.92494 | -3.44630 | 934 ft | 146 kts | 62° |
| 2026-05-06 20:01 | 55.93001 | -3.43141 | 734 ft | 137 kts | 62° |
| 2026-05-06 20:01 | 55.93486 | -3.41714 | 528 ft | 134 kts | 63° |
| 2026-05-06 20:01 | 55.93966 | -3.40298 | 363 ft | 132 kts | 63° |
| 2026-05-06 20:02 | 55.94442 | -3.38899 | 193 ft | 132 kts | 63° |
| 2026-05-06 20:02 | 55.94885 | -3.37580 | 114 ft | 106 kts | 58° |
| 2026-05-06 20:02 | 55.95179 | -3.36716 | 113 ft | 57 kts | 58° |
| 2026-05-06 20:02 | 55.95258 | -3.36459 | 111 ft | 7 kts | 88° |
| 2026-05-06 20:03 | 55.95232 | -3.36388 | 113 ft | 7 kts | 151° |
| 2026-05-06 20:03 | 55.95223 | -3.36380 | 114 ft | 4 kts | 152° |
| 2026-05-06 20:03 | 55.95205 | -3.36362 | 115 ft | 3 kts | 152° |
| 2026-05-06 20:03 | 55.95183 | -3.36341 | 114 ft | 5 kts | 150° |
| 2026-05-06 20:04 | 55.95167 | -3.36323 | 114 ft | 1 kts | 148° |
| 2026-05-06 20:04 | 55.95153 | -3.36307 | 115 ft | 4 kts | 144° |
| 2026-05-06 20:04 | 55.95137 | -3.36232 | 114 ft | 9 kts | 106° |
| 2026-05-06 20:04 | 55.95112 | -3.36099 | 115 ft | 11 kts | 108° |
| 2026-05-06 20:05 | 55.95092 | -3.35996 | 114 ft | 10 kts | 110° |
| 2026-05-06 20:05 | 55.95061 | -3.35885 | 115 ft | 9 kts | 117° |
| 2026-05-06 20:05 | 55.95021 | -3.35828 | 116 ft | 8 kts | 193° |
| 2026-05-06 20:05 | 55.94962 | -3.35863 | 115 ft | 9 kts | 179° |
| 2026-05-06 20:06 | 55.94928 | -3.35839 | 114 ft | 6 kts | 132° |
| 2026-05-06 20:06 | 55.94904 | -3.35823 | 116 ft | 3 kts | 203° |
| 2026-05-06 20:06 | 55.94881 | -3.35840 | 116 ft | 4 kts | 204° |
| 2026-05-06 20:06 | 55.94855 | -3.35865 | 115 ft | 4 kts | 208° |
| 2026-05-06 20:07 | 55.94848 | -3.35872 | 116 ft | 0 kts | 208° |